Time;durP1;ratioP1;P1;durP2;ratioP2;P2;SDS_P1;SDS_P2;PMS_P1;PMS_P2;Temp;Humidity;BMP_temperature;BMP_pressure;BME280_temperature;BME280_humidity;BME280_pressure;Samples;Min_cycle;Max_cycle;Signal;HPM_P1;HPM_P2
2022/04/11 00:02:09;;;;;;;4.40;2.53;;;;;;;-144.47;100.00;61586.06;6183182;23;20013;-79
2022/04/11 00:04:34;;;;;;;2.58;2.20;;;;;;;-144.47;100.00;61586.06;6184633;23;20036;-79
2022/04/11 00:07:00;;;;;;;3.13;2.55;;;;;;;-144.47;100.00;61586.06;6183927;23;20118;-79
2022/04/11 00:09:25;;;;;;;2.75;2.22;;;;;;;-144.47;100.00;61586.06;6157740;23;20021;-79
2022/04/11 00:11:51;;;;;;;6.45;3.10;;;;;;;-144.47;100.00;61586.06;6158169;23;20024;-79
2022/04/11 00:14:17;;;;;;;4.28;2.10;;;;;;;-144.47;100.00;61586.06;6188912;23;20084;-79
2022/04/11 00:16:42;;;;;;;5.07;3.15;;;;;;;-144.47;100.00;61586.06;6193061;23;20001;-79
2022/04/11 00:19:08;;;;;;;4.13;2.95;;;;;;;-144.47;100.00;61586.06;6208793;23;20011;-79
2022/04/11 00:21:34;;;;;;;4.97;2.47;;;;;;;-144.47;100.00;61586.06;6205159;23;20001;-79
2022/04/11 00:24:00;;;;;;;3.40;2.40;;;;;;;-144.47;100.00;61586.06;6185593;23;20338;-77
2022/04/11 00:26:25;;;;;;;2.97;2.53;;;;;;;-144.47;100.00;61586.06;6185989;23;20084;-77
2022/04/11 00:28:51;;;;;;;5.80;2.67;;;;;;;-144.47;100.00;61586.06;6184143;23;20345;-77
2022/04/11 00:31:17;;;;;;;4.75;2.70;;;;;;;-144.47;100.00;61586.06;6185788;23;20005;-77
2022/04/11 00:33:43;;;;;;;4.07;2.80;;;;;;;-144.47;100.00;61586.06;6160531;23;20013;-77
2022/04/11 00:36:08;;;;;;;3.22;2.80;;;;;;;-144.47;100.00;61586.06;6197301;23;20231;-78
2022/04/11 00:38:34;;;;;;;3.83;2.70;;;;;;;-144.47;100.00;61586.06;6170033;23;20017;-78
2022/04/11 00:41:00;;;;;;;2.53;2.33;;;;;;;-144.47;100.00;61586.06;6182852;23;20021;-77
2022/04/11 00:43:33;;;;;;;3.60;2.47;;;;;;;-144.47;100.00;61586.06;6132863;23;20009;-78
2022/04/11 00:45:59;;;;;;;2.88;2.47;;;;;;;-144.47;100.00;61586.06;6183161;23;20005;-79
2022/04/11 00:48:25;;;;;;;3.47;2.67;;;;;;;-144.47;100.00;61586.06;6183845;23;20096;-79
2022/04/11 00:51:00;;;;;;;4.43;2.20;;;;;;;-144.47;100.00;61586.06;6156542;23;20029;-79
2022/04/11 00:53:28;;;;;;;4.07;2.47;;;;;;;-144.47;100.00;61586.06;6183565;23;20032;-77
2022/04/11 00:55:56;;;;;;;3.63;2.33;;;;;;;-144.47;100.00;61586.06;6156269;23;20056;-78
2022/04/11 00:58:22;;;;;;;4.10;2.15;;;;;;;-144.47;100.00;61586.06;6154033;23;20438;-78
2022/04/11 01:00:48;;;;;;;4.63;2.40;;;;;;;-144.47;100.00;61586.06;6180945;23;20016;-79
2022/04/11 01:03:13;;;;;;;2.00;1.90;;;;;;;-144.47;100.00;61586.06;6178976;23;20009;-79
2022/04/11 01:05:40;;;;;;;2.35;1.90;;;;;;;-144.47;100.00;61586.06;6183078;23;20350;-78
2022/04/11 01:08:08;;;;;;;3.30;2.38;;;;;;;-144.47;100.00;61586.06;6157420;23;20029;-78
2022/04/11 01:10:34;;;;;;;2.63;2.20;;;;;;;-144.47;100.00;61586.06;6183620;23;20469;-78
2022/04/11 01:13:00;;;;;;;3.35;2.13;;;;;;;-144.47;100.00;61586.06;6156307;23;20013;-78
2022/04/11 01:15:27;;;;;;;2.30;2.10;;;;;;;-144.47;100.00;61586.06;6157152;23;20017;-78
2022/04/11 01:17:53;;;;;;;2.35;1.75;;;;;;;-144.47;100.00;61586.06;6156663;23;20009;-78
2022/04/11 01:20:22;;;;;;;3.10;2.58;;;;;;;-144.47;100.00;61586.06;6181159;23;20092;-78
2022/04/11 01:22:48;;;;;;;3.45;1.83;;;;;;;-144.47;100.00;61586.06;6183230;23;20083;-78
2022/04/11 01:25:15;;;;;;;3.28;2.30;;;;;;;-144.47;100.00;61586.06;6181286;23;20023;-78
2022/04/11 01:27:42;;;;;;;1.88;1.67;;;;;;;-144.47;100.00;61586.06;6155797;23;20016;-78
2022/04/11 01:30:13;;;;;;;2.00;1.90;;;;;;;-144.47;100.00;61586.06;6155502;23;20023;-78
2022/04/11 01:32:42;;;;;;;4.75;2.40;;;;;;;-144.47;100.00;61586.06;6159893;23;20005;-79
2022/04/11 01:35:24;;;;;;;2.40;1.98;;;;;;;-144.47;100.00;61586.06;6184618;23;20071;-78
2022/04/11 01:37:52;;;;;;;1.98;1.65;;;;;;;-144.47;100.00;61586.06;6157638;23;20440;-77
2022/04/11 01:40:18;;;;;;;3.03;2.58;;;;;;;-144.47;100.00;61586.06;6157462;23;20330;-78
2022/04/11 01:42:44;;;;;;;2.80;1.85;;;;;;;-144.47;100.00;61586.06;6156695;23;20001;-77
2022/04/11 01:45:11;;;;;;;2.28;1.98;;;;;;;-144.47;100.00;61586.06;6156363;23;20013;-79
2022/04/11 01:47:42;;;;;;;2.85;1.98;;;;;;;-144.47;100.00;61586.06;6182140;23;20112;-77
2022/04/11 01:50:09;;;;;;;3.42;1.98;;;;;;;-144.47;100.00;61586.06;6157509;23;20087;-78
2022/04/11 01:52:35;;;;;;;2.60;1.88;;;;;;;-144.47;100.00;61586.06;6157764;23;20009;-78
2022/04/11 01:55:01;;;;;;;2.90;2.20;;;;;;;-144.47;100.00;61586.06;6157918;23;20276;-79
2022/04/11 01:57:27;;;;;;;1.83;1.73;;;;;;;-144.47;100.00;61586.06;6157765;23;20099;-79
2022/04/11 01:59:53;;;;;;;1.90;1.75;;;;;;;-144.47;100.00;61586.06;6156679;23;20450;-78
2022/04/11 02:02:18;;;;;;;2.30;2.10;;;;;;;-144.47;100.00;61586.06;6156557;23;20073;-77
2022/04/11 02:04:44;;;;;;;3.65;2.40;;;;;;;-144.47;100.00;61586.06;6132305;23;20009;-79
2022/04/11 02:07:09;;;;;;;3.80;2.30;;;;;;;-144.47;100.00;61586.06;6156177;23;20334;-78
2022/04/11 02:09:35;;;;;;;2.50;2.05;;;;;;;-144.47;100.00;61586.06;6157009;23;20334;-79
2022/04/11 02:12:00;;;;;;;3.97;2.28;;;;;;;-144.47;100.00;61586.06;6156551;23;20086;-78
2022/04/11 02:14:26;;;;;;;2.90;1.85;;;;;;;-144.47;100.00;61586.06;6132777;23;20013;-79
2022/04/11 02:16:52;;;;;;;2.00;1.90;;;;;;;-144.47;100.00;61586.06;6158025;23;20385;-77
2022/04/11 02:19:17;;;;;;;2.63;2.22;;;;;;;-144.47;100.00;61586.06;6184454;23;20338;-78
2022/04/11 02:21:43;;;;;;;2.10;1.80;;;;;;;-144.47;100.00;61586.06;6159535;23;20045;-78
2022/04/11 02:24:08;;;;;;;4.55;2.65;;;;;;;-144.47;100.00;61586.06;6160233;23;20013;-77
2022/04/11 02:26:34;;;;;;;3.08;2.42;;;;;;;-144.47;100.00;61586.06;6160204;23;20013;-77
2022/04/11 02:28:59;;;;;;;3.33;2.10;;;;;;;-144.47;100.00;61586.06;6158794;23;20013;-77
2022/04/11 02:31:25;;;;;;;2.75;2.45;;;;;;;-144.47;100.00;61586.06;6156759;23;20358;-78
2022/04/11 02:33:51;;;;;;;2.10;1.90;;;;;;;-144.47;100.00;61586.06;6157756;23;20013;-77
2022/04/11 02:36:16;;;;;;;2.70;2.42;;;;;;;-144.47;100.00;61586.06;6156106;23;20009;-77
2022/04/11 02:38:42;;;;;;;2.80;2.60;;;;;;;-144.47;100.00;61586.06;6158004;23;20013;-78
2022/04/11 02:41:07;;;;;;;3.17;2.42;;;;;;;-144.47;100.00;61586.06;6133003;23;20012;-78
2022/04/11 02:43:40;;;;;;;2.67;2.20;;;;;;;-144.47;100.00;61586.06;6157701;23;20064;-78
2022/04/11 02:46:08;;;;;;;2.97;2.67;;;;;;;-144.47;100.00;61586.06;6157588;23;20029;-77
2022/04/11 02:48:37;;;;;;;3.60;2.60;;;;;;;-144.47;100.00;61586.06;6161717;23;20033;-79
2022/04/11 02:51:10;;;;;;;4.05;2.50;;;;;;;-144.47;100.00;61586.06;6159023;23;20349;-78
2022/04/11 02:53:43;;;;;;;3.30;2.65;;;;;;;-144.47;100.00;61586.06;6156023;23;20036;-78
2022/04/11 02:56:09;;;;;;;3.72;2.33;;;;;;;-144.47;100.00;61586.06;6157897;23;20020;-78
2022/04/11 02:58:34;;;;;;;2.78;2.58;;;;;;;-144.47;100.00;61586.06;6155874;23;20005;-78
2022/04/11 03:01:00;;;;;;;2.75;2.47;;;;;;;-144.47;100.00;61586.06;6155032;23;20427;-78
2022/04/11 03:03:26;;;;;;;3.38;2.28;;;;;;;-144.47;100.00;61586.06;6155708;23;20009;-78
2022/04/11 03:05:52;;;;;;;3.00;2.75;;;;;;;-144.47;100.00;61586.06;6155060;23;20020;-78
2022/04/11 03:08:18;;;;;;;2.38;2.17;;;;;;;-144.47;100.00;61586.06;6155916;23;20093;-78
2022/04/11 03:10:43;;;;;;;5.70;2.65;;;;;;;-144.47;100.00;61586.06;6155782;23;20454;-78
2022/04/11 03:13:09;;;;;;;4.20;2.60;;;;;;;-144.47;100.00;61586.06;6155610;23;20055;-77
2022/04/11 03:15:35;;;;;;;2.53;2.05;;;;;;;-144.47;100.00;61586.06;6130935;23;20021;-78
2022/04/11 03:18:01;;;;;;;2.90;2.40;;;;;;;-144.47;100.00;61586.06;6155042;23;20452;-78
2022/04/11 03:20:27;;;;;;;5.70;2.35;;;;;;;-144.47;100.00;61586.06;6155572;23;20021;-77
2022/04/11 03:22:55;;;;;;;2.75;2.45;;;;;;;-144.47;100.00;61586.06;6155563;23;20009;-78
2022/04/11 03:25:21;;;;;;;4.25;2.80;;;;;;;-144.47;100.00;61586.06;6155926;23;20040;-78
2022/04/11 03:27:48;;;;;;;5.00;2.53;;;;;;;-144.47;100.00;61586.06;6156200;23;20017;-77
2022/04/11 03:30:15;;;;;;;2.45;2.13;;;;;;;-144.47;100.00;61586.06;6155769;23;20013;-77
2022/04/11 03:32:41;;;;;;;7.22;2.60;;;;;;;-144.47;100.00;61586.06;6182081;23;20025;-77
2022/04/11 03:35:10;;;;;;;4.32;2.33;;;;;;;-144.47;100.00;61586.06;6155509;23;20044;-78
2022/04/11 03:37:37;;;;;;;3.63;2.47;;;;;;;-144.47;100.00;61586.06;6156384;23;20028;-77
2022/04/11 03:40:12;;;;;;;3.13;2.22;;;;;;;-144.47;100.00;61586.06;6158009;23;20017;-77
2022/04/11 03:42:39;;;;;;;3.00;2.70;;;;;;;-144.47;100.00;61586.06;6158167;23;20005;-78
2022/04/11 03:45:08;;;;;;;2.90;2.35;;;;;;;-144.47;100.00;61586.06;6157940;23;20634;-78
2022/04/11 03:47:34;;;;;;;6.28;2.83;;;;;;;-144.47;100.00;61586.06;6157585;23;20020;-78
2022/04/11 03:49:59;;;;;;;7.20;3.15;;;;;;;-144.47;100.00;61586.06;6157430;23;20013;-78
2022/04/11 03:52:31;;;;;;;3.70;2.55;;;;;;;-144.47;100.00;61586.06;6184098;23;20013;-77
2022/04/11 03:54:58;;;;;;;4.57;2.70;;;;;;;-144.47;100.00;61586.06;6157634;23;20052;-78
2022/04/11 03:57:25;;;;;;;2.35;2.15;;;;;;;-144.47;100.00;61586.06;6157926;23;20009;-78
2022/04/11 03:59:53;;;;;;;3.42;2.10;;;;;;;-144.47;100.00;61586.06;6157695;23;20391;-78
2022/04/11 04:02:19;;;;;;;2.65;2.13;;;;;;;-144.47;100.00;61586.06;6158106;23;20009;-78
2022/04/11 04:04:45;;;;;;;2.92;2.10;;;;;;;-144.47;100.00;61586.06;6157879;23;20035;-78
2022/04/11 04:07:12;;;;;;;4.22;2.50;;;;;;;-144.47;100.00;61586.06;6181786;23;20061;-78
2022/04/11 04:09:38;;;;;;;3.22;2.58;;;;;;;-144.47;100.00;61586.06;6158242;23;20088;-78
2022/04/11 04:12:05;;;;;;;2.30;2.10;;;;;;;-144.47;100.00;61586.06;6157696;23;20436;-77
2022/04/11 04:14:38;;;;;;;2.67;2.20;;;;;;;-144.47;100.00;61586.06;6158102;23;20009;-78
2022/04/11 04:17:05;;;;;;;3.88;2.22;;;;;;;-144.47;100.00;61586.06;6157965;23;20032;-77
2022/04/11 04:19:41;;;;;;;2.50;2.30;;;;;;;-144.47;100.00;61586.06;6167739;23;20068;-76
2022/04/11 04:22:12;;;;;;;3.50;2.42;;;;;;;-144.47;100.00;61586.06;6170990;23;20056;-77
2022/04/11 04:24:38;;;;;;;4.13;3.00;;;;;;;-144.47;100.00;61586.06;6165929;23;20035;-77
2022/04/11 04:27:05;;;;;;;7.28;2.92;;;;;;;-144.47;100.00;61586.06;6159010;23;20043;-77
2022/04/11 04:29:34;;;;;;;2.92;2.30;;;;;;;-144.47;100.00;61586.06;6159234;23;20028;-76
2022/04/11 04:32:00;;;;;;;4.70;2.45;;;;;;;-144.47;100.00;61586.06;6164852;23;20020;-77
2022/04/11 04:34:30;;;;;;;4.82;2.50;;;;;;;-144.47;100.00;61586.06;6174078;23;20009;-77
2022/04/11 04:36:55;;;;;;;7.28;4.05;;;;;;;-144.47;100.00;61586.06;6167040;23;20040;-77
2022/04/11 04:39:21;;;;;;;8.43;2.90;;;;;;;-144.47;100.00;61586.06;6181868;23;20016;-77
2022/04/11 04:41:47;;;;;;;3.92;3.10;;;;;;;-144.47;100.00;61586.06;6156934;23;20037;-78
2022/04/11 04:44:15;;;;;;;5.53;2.95;;;;;;;-144.47;100.00;61586.06;6157582;23;20009;-77
2022/04/11 04:46:45;;;;;;;7.32;3.13;;;;;;;-144.47;100.00;61586.06;6183713;23;20017;-77
2022/04/11 04:49:33;;;;;;;3.90;3.20;;;;;;;-144.47;100.00;61586.06;6182791;23;20084;-77
2022/04/11 04:52:01;;;;;;;4.80;3.10;;;;;;;-144.47;100.00;61586.06;6156144;23;20107;-78
2022/04/11 04:54:28;;;;;;;3.85;3.00;;;;;;;-144.47;100.00;61586.06;6157218;23;20009;-77
2022/04/11 04:56:55;;;;;;;3.75;3.08;;;;;;;-144.47;100.00;61586.06;6157075;23;20057;-79
2022/04/11 04:59:25;;;;;;;5.78;3.00;;;;;;;-144.47;100.00;61586.06;6157868;23;20005;-78
2022/04/11 05:01:52;;;;;;;4.30;3.00;;;;;;;-144.47;100.00;61586.06;6157226;23;20020;-78
2022/04/11 05:04:20;;;;;;;4.05;2.85;;;;;;;-144.47;100.00;61586.06;6157506;23;20144;-79
2022/04/11 05:06:46;;;;;;;4.18;3.05;;;;;;;-144.47;100.00;61586.06;6132122;23;20068;-78
2022/04/11 05:09:13;;;;;;;5.72;2.80;;;;;;;-144.47;100.00;61586.06;6157567;23;20032;-78
2022/04/11 05:11:41;;;;;;;5.40;3.05;;;;;;;-144.47;100.00;61586.06;6157628;23;20406;-79
2022/04/11 05:14:07;;;;;;;3.30;3.00;;;;;;;-144.47;100.00;61586.06;6156978;23;20017;-78
2022/04/11 05:16:34;;;;;;;3.55;3.25;;;;;;;-144.47;100.00;61586.06;6157280;23;20095;-77
2022/04/11 05:19:02;;;;;;;6.82;3.60;;;;;;;-144.47;100.00;61586.06;6156910;23;20540;-77
2022/04/11 05:21:28;;;;;;;4.88;2.80;;;;;;;-144.47;100.00;61586.06;6156568;23;20092;-77
2022/04/11 05:23:54;;;;;;;4.70;2.63;;;;;;;-144.47;100.00;61586.06;6182143;23;20040;-78
2022/04/11 05:26:19;;;;;;;3.22;2.80;;;;;;;-144.47;100.00;61586.06;6183166;23;20426;-78
2022/04/11 05:28:46;;;;;;;6.63;2.88;;;;;;;-144.47;100.00;61586.06;6156621;23;20016;-78
2022/04/11 05:31:11;;;;;;;5.18;2.97;;;;;;;-144.47;100.00;61586.06;6157057;23;20048;-78
2022/04/11 05:33:40;;;;;;;5.88;2.92;;;;;;;-144.47;100.00;61586.06;6157198;23;20074;-78
2022/04/11 05:36:09;;;;;;;9.98;3.20;;;;;;;-144.47;100.00;61586.06;6156272;23;20383;-78
2022/04/11 05:38:35;;;;;;;5.93;2.85;;;;;;;-144.47;100.00;61586.06;6156223;23;20020;-78
2022/04/11 05:41:02;;;;;;;5.57;2.60;;;;;;;-144.47;100.00;61586.06;6156180;23;20093;-81
2022/04/11 05:43:34;;;;;;;3.90;2.90;;;;;;;-144.47;100.00;61586.06;6157677;23;20005;-80
2022/04/11 05:46:02;;;;;;;3.72;3.40;;;;;;;-144.47;100.00;61586.06;6183805;23;20013;-80
2022/04/11 05:48:30;;;;;;;3.90;2.92;;;;;;;-144.47;100.00;61586.06;6155139;23;20040;-80
2022/04/11 05:50:59;;;;;;;4.85;3.58;;;;;;;-144.47;100.00;61586.06;6159445;23;20012;-81
2022/04/11 05:53:26;;;;;;;3.92;3.00;;;;;;;-144.47;100.00;61586.06;6177657;23;20013;-79
2022/04/11 05:55:53;;;;;;;4.55;3.97;;;;;;;-144.47;100.00;61586.06;6155730;23;20048;-79
2022/04/11 05:58:20;;;;;;;5.53;3.25;;;;;;;-144.47;100.00;61586.06;6166230;23;20411;-79
2022/04/11 06:00:46;;;;;;;5.10;2.97;;;;;;;-144.47;100.00;61586.06;6153339;23;20096;-79
2022/04/11 06:03:12;;;;;;;5.30;3.10;;;;;;;-144.47;100.00;61586.06;6153798;23;20013;-79
2022/04/11 06:05:38;;;;;;;7.30;3.15;;;;;;;-144.47;100.00;61586.06;6154010;23;20009;-79
2022/04/11 06:08:04;;;;;;;9.68;3.80;;;;;;;-144.47;100.00;61586.06;6153390;23;20057;-77
2022/04/11 06:10:30;;;;;;;6.68;3.78;;;;;;;-144.47;100.00;61586.06;6152868;23;20013;-79
2022/04/11 06:12:56;;;;;;;5.32;3.60;;;;;;;-144.47;100.00;61586.06;6156380;23;20295;-78
2022/04/11 06:15:22;;;;;;;3.90;3.00;;;;;;;-144.47;100.00;61586.06;6133345;23;20019;-80
2022/04/11 06:17:50;;;;;;;5.80;3.58;;;;;;;-144.47;100.00;61586.06;6131231;23;20056;-82
2022/04/11 06:20:17;;;;;;;4.90;3.38;;;;;;;-144.47;100.00;61586.06;6201295;23;20013;-80
2022/04/11 06:22:43;;;;;;;4.78;2.95;;;;;;;-144.47;100.00;61586.06;6156531;23;20383;-80
2022/04/11 06:25:09;;;;;;;5.20;3.67;;;;;;;-144.47;100.00;61586.06;6156433;23;20024;-83
2022/04/11 06:27:36;;;;;;;3.97;2.95;;;;;;;-144.47;100.00;61586.06;6182887;23;20016;-81
2022/04/11 06:30:03;;;;;;;4.10;2.97;;;;;;;-144.47;100.00;61586.06;6155924;23;20013;-79
2022/04/11 06:32:31;;;;;;;6.70;4.10;;;;;;;-144.47;100.00;61586.06;6156594;23;20403;-81
2022/04/11 06:34:58;;;;;;;4.28;3.28;;;;;;;-144.47;100.00;61586.06;6131642;23;20094;-80
2022/04/11 06:37:25;;;;;;;8.60;3.42;;;;;;;-144.47;100.00;61586.06;6156168;23;20017;-80
2022/04/11 06:39:53;;;;;;;4.28;3.17;;;;;;;-144.47;100.00;61586.06;6180165;23;20323;-80
2022/04/11 06:42:19;;;;;;;9.27;3.13;;;;;;;-144.47;100.00;61586.06;6156481;23;20021;-81
2022/04/11 06:44:48;;;;;;;6.97;3.30;;;;;;;-144.47;100.00;61586.06;6180969;23;20013;-81
2022/04/11 06:47:14;;;;;;;5.07;3.45;;;;;;;-144.47;100.00;61586.06;6155729;23;20028;-81
2022/04/11 06:49:40;;;;;;;7.30;3.40;;;;;;;-144.47;100.00;61586.06;6155999;23;20009;-81
2022/04/11 06:52:06;;;;;;;4.32;3.15;;;;;;;-144.47;100.00;61586.06;6155432;23;20004;-81
2022/04/11 06:54:32;;;;;;;7.85;3.80;;;;;;;-144.47;100.00;61586.06;6182488;23;20017;-80
2022/04/11 06:56:57;;;;;;;4.93;3.75;;;;;;;-144.47;100.00;61586.06;6185260;23;20020;-80
2022/04/11 06:59:23;;;;;;;5.57;4.13;;;;;;;-144.47;100.00;61586.06;6182096;23;20037;-81
2022/04/11 07:01:51;;;;;;;6.47;4.22;;;;;;;-144.47;100.00;61586.06;6179183;23;20113;-78
2022/04/11 07:04:17;;;;;;;7.35;4.32;;;;;;;-144.47;100.00;61586.06;6182126;23;20001;-80
2022/04/11 07:06:43;;;;;;;6.55;4.47;;;;;;;-144.47;100.00;61586.06;6182052;23;20009;-79
2022/04/11 07:09:08;;;;;;;6.95;4.05;;;;;;;-144.47;100.00;61586.06;6181600;23;20020;-79
2022/04/11 07:11:34;;;;;;;6.28;4.25;;;;;;;-144.47;100.00;61586.06;6182849;23;20108;-80
2022/04/11 07:14:00;;;;;;;4.35;3.78;;;;;;;-144.47;100.00;61586.06;6185287;23;20056;-79
2022/04/11 07:16:25;;;;;;;5.00;3.45;;;;;;;-144.47;100.00;61586.06;6185750;23;20437;-84
2022/04/11 07:18:51;;;;;;;8.05;4.18;;;;;;;-144.47;100.00;61586.06;6184767;23;20088;-81
2022/04/11 07:21:19;;;;;;;7.82;3.65;;;;;;;-144.47;100.00;61586.06;6186326;23;20009;-82
2022/04/11 07:23:45;;;;;;;6.15;3.63;;;;;;;-144.47;100.00;61586.06;6186527;23;20379;-84
2022/04/11 07:26:11;;;;;;;10.18;4.85;;;;;;;-144.47;100.00;61586.06;6186261;23;20118;-84
2022/04/11 07:28:36;;;;;;;5.60;4.05;;;;;;;-144.47;100.00;61586.06;6160440;23;20013;-85
2022/04/11 07:31:02;;;;;;;5.43;3.80;;;;;;;-144.47;100.00;61586.06;6185881;23;20016;-80
2022/04/11 07:33:27;;;;;;;12.32;3.67;;;;;;;-144.47;100.00;61586.06;6186559;23;20067;-82
2022/04/11 07:35:53;;;;;;;5.55;4.00;;;;;;;-144.47;100.00;61586.06;6185764;23;20005;-83
2022/04/11 07:38:19;;;;;;;4.63;3.45;;;;;;;-144.47;100.00;61586.06;6185727;23;20013;-84
2022/04/11 07:40:45;;;;;;;9.13;3.80;;;;;;;-144.47;100.00;61586.06;6185993;23;20012;-81
2022/04/11 07:43:10;;;;;;;7.22;3.75;;;;;;;-144.47;100.00;61586.06;6186121;23;20422;-80
2022/04/11 07:45:36;;;;;;;6.30;3.70;;;;;;;-144.47;100.00;61586.06;6186060;23;20051;-85
2022/04/11 07:48:01;;;;;;;4.22;3.60;;;;;;;-144.47;100.00;61586.06;6185917;23;20017;-81
2022/04/11 07:50:27;;;;;;;6.03;3.90;;;;;;;-144.47;100.00;61586.06;6185862;23;20009;-84
2022/04/11 07:52:53;;;;;;;8.32;3.92;;;;;;;-144.47;100.00;61586.06;6158983;23;20001;-85
2022/04/11 07:55:19;;;;;;;10.57;3.80;;;;;;;-144.47;100.00;61586.06;6186457;23;20072;-81
2022/04/11 07:57:44;;;;;;;6.07;3.58;;;;;;;-144.47;100.00;61586.06;6184462;23;20044;-83
2022/04/11 08:00:10;;;;;;;4.32;3.92;;;;;;;-144.47;100.00;61586.06;6185152;23;20013;-85
2022/04/11 08:02:39;;;;;;;5.80;3.92;;;;;;;-144.47;100.00;61586.06;6187471;23;20072;-84
2022/04/11 08:05:05;;;;;;;7.85;4.53;;;;;;;-144.47;100.00;61586.06;6185780;23;20390;-78
2022/04/11 08:07:34;;;;;;;5.32;3.88;;;;;;;-144.47;100.00;61586.06;6185152;23;20011;-77
2022/04/11 08:10:05;;;;;;;6.95;3.88;;;;;;;-144.47;100.00;61586.06;6162265;23;20020;-80
2022/04/11 08:12:30;;;;;;;5.45;3.58;;;;;;;-144.47;100.00;61586.06;6208833;23;20045;-81
2022/04/11 08:14:57;;;;;;;3.70;2.92;;;;;;;-144.47;100.00;61586.06;6208003;23;20054;-82
2022/04/11 08:17:23;;;;;;;7.82;3.30;;;;;;;-144.47;100.00;61586.06;6179035;23;20013;-81
2022/04/11 08:19:48;;;;;;;5.20;3.42;;;;;;;-144.47;100.00;61586.06;6193537;23;20496;-80
2022/04/11 08:22:13;;;;;;;5.15;4.63;;;;;;;-144.47;100.00;61586.06;6185177;23;20068;-79
2022/04/11 08:24:39;;;;;;;5.18;3.55;;;;;;;-144.47;100.00;61586.06;6183444;23;20338;-78
2022/04/11 08:27:05;;;;;;;5.10;3.38;;;;;;;-144.47;100.00;61586.06;6157450;23;20037;-80
2022/04/11 08:29:30;;;;;;;3.88;3.10;;;;;;;-144.47;100.00;61586.06;6181127;23;20075;-81
2022/04/11 08:31:57;;;;;;;3.40;3.10;;;;;;;-144.47;100.00;61586.06;6181883;23;20017;-84
2022/04/11 08:34:24;;;;;;;6.95;3.40;;;;;;;-144.47;100.00;61586.06;6157197;23;20041;-83
2022/04/11 08:36:49;;;;;;;3.17;2.13;;;;;;;-144.47;100.00;61586.06;6183022;23;20044;-78
2022/04/11 08:39:16;;;;;;;3.28;1.98;;;;;;;-144.47;100.00;61586.06;6183768;23;20036;-80
2022/04/11 08:41:42;;;;;;;4.38;2.88;;;;;;;-144.47;100.00;61586.06;6157437;23;20040;-79
2022/04/11 08:44:07;;;;;;;4.05;2.53;;;;;;;-144.47;100.00;61586.06;6182664;23;20093;-81
2022/04/11 08:46:35;;;;;;;2.53;2.33;;;;;;;-144.47;100.00;61586.06;6183495;23;20304;-82
2022/04/11 08:49:03;;;;;;;2.20;2.10;;;;;;;-144.47;100.00;61586.06;6185558;23;20032;-83
2022/04/11 08:51:33;;;;;;;3.22;2.17;;;;;;;-144.47;100.00;61586.06;6182928;23;20361;-82
2022/04/11 08:54:05;;;;;;;3.03;2.38;;;;;;;-144.47;100.00;61586.06;6182881;23;20013;-86
2022/04/11 08:56:31;;;;;;;4.07;2.03;;;;;;;-144.47;100.00;61586.06;6181199;23;20009;-82
2022/04/11 08:58:57;;;;;;;4.28;2.55;;;;;;;-144.47;100.00;61586.06;6180969;23;20072;-84
2022/04/11 09:01:24;;;;;;;3.22;1.88;;;;;;;-144.47;100.00;61586.06;6180379;23;20080;-83
2022/04/11 09:03:50;;;;;;;2.95;2.63;;;;;;;-144.47;100.00;61586.06;6180163;23;20017;-85
2022/04/11 09:06:17;;;;;;;5.38;2.60;;;;;;;-144.47;100.00;61586.06;6180399;23;20017;-83
2022/04/11 09:08:51;;;;;;;6.53;2.50;;;;;;;-144.47;100.00;61586.06;6179839;23;20013;-84
2022/04/11 09:11:37;;;;;;;4.22;2.75;;;;;;;-144.47;100.00;61586.06;6151024;23;20024;-84
2022/04/11 09:14:04;;;;;;;7.82;3.22;;;;;;;-144.47;100.00;61586.06;6177649;23;20147;-85
2022/04/11 09:16:48;;;;;;;5.28;2.55;;;;;;;-144.47;100.00;61586.06;6177953;23;20013;-86
2022/04/11 09:19:24;;;;;;;3.13;2.70;;;;;;;-144.47;100.00;61586.06;6180301;23;20020;-83
2022/04/11 09:21:54;;;;;;;3.25;2.95;;;;;;;-144.47;100.00;61586.06;6180386;23;20013;-84
2022/04/11 09:24:22;;;;;;;3.15;2.60;;;;;;;-144.47;100.00;61586.06;6181599;23;20005;-84
2022/04/11 09:26:50;;;;;;;6.07;2.38;;;;;;;-144.47;100.00;61586.06;6181933;23;20009;-85
2022/04/11 09:29:15;;;;;;;3.60;2.95;;;;;;;-144.47;100.00;61586.06;6182033;23;20017;-84
2022/04/11 09:31:42;;;;;;;7.25;2.63;;;;;;;-144.47;100.00;61586.06;6180496;23;20433;-85
2022/04/11 09:34:22;;;;;;;4.57;2.50;;;;;;;-144.47;100.00;61586.06;6180700;23;20013;-79
2022/04/11 09:36:53;;;;;;;2.78;2.40;;;;;;;-144.47;100.00;61586.06;6181266;23;20431;-84
2022/04/11 09:39:21;;;;;;;5.15;2.83;;;;;;;-144.47;100.00;61586.06;6179911;23;20013;-84
2022/04/11 09:41:47;;;;;;;5.05;2.63;;;;;;;-144.47;100.00;61586.06;6179747;23;20009;-84
2022/04/11 09:44:27;;;;;;;4.95;2.55;;;;;;;-144.47;100.00;61586.06;6154057;23;20060;-84
2022/04/11 09:46:55;;;;;;;5.05;2.50;;;;;;;-144.47;100.00;61586.06;6180052;23;20421;-85
2022/04/11 09:49:21;;;;;;;3.35;2.60;;;;;;;-144.47;100.00;61586.06;6180449;23;20064;-83
2022/04/11 09:52:08;;;;;;;3.03;2.78;;;;;;;-144.47;100.00;61586.06;6179600;23;20461;-85
2022/04/11 09:54:38;;;;;;;2.75;2.55;;;;;;;-144.47;100.00;61586.06;6195049;23;20028;-81
2022/04/11 09:57:04;;;;;;;4.17;2.50;;;;;;;-144.47;100.00;61586.06;6176056;23;20084;-84
2022/04/11 09:59:32;;;;;;;3.80;2.20;;;;;;;-144.47;100.00;61586.06;6187351;23;20013;-84
2022/04/11 10:01:59;;;;;;;4.85;2.85;;;;;;;-144.47;100.00;61586.06;6180138;23;20028;-81
2022/04/11 10:04:25;;;;;;;3.42;2.47;;;;;;;-144.47;100.00;61586.06;6180430;23;20442;-81
2022/04/11 10:06:52;;;;;;;3.08;2.45;;;;;;;-144.47;100.00;61586.06;6180075;23;20051;-82
2022/04/11 10:09:21;;;;;;;3.90;2.55;;;;;;;-144.47;100.00;61586.06;6180109;23;20478;-83
2022/04/11 10:11:47;;;;;;;3.00;2.78;;;;;;;-144.47;100.00;61586.06;6180005;23;20492;-83
2022/04/11 10:14:23;;;;;;;6.15;2.50;;;;;;;-144.47;100.00;61586.06;6179672;23;20059;-83
2022/04/11 10:16:51;;;;;;;4.40;2.85;;;;;;;-144.47;100.00;61586.06;6179794;23;20036;-82
2022/04/11 10:19:22;;;;;;;2.63;2.42;;;;;;;-144.47;100.00;61586.06;6153481;23;20324;-81
2022/04/11 10:21:48;;;;;;;;;;;;;;;-144.47;100.00;61586.06;6153575;23;20092;-82
2022/04/11 10:24:38;;;;;;;3.53;2.60;;;;;;;-144.47;100.00;61586.06;6179034;23;19911;-80
2022/04/11 10:27:22;;;;;;;3.65;3.08;;;;;;;-144.47;100.00;61586.06;6178902;23;20415;-82
2022/04/11 10:29:55;;;;;;;2.40;2.15;;;;;;;-144.47;100.00;61586.06;6153155;23;20021;-81
2022/04/11 10:32:23;;;;;;;2.90;2.47;;;;;;;-144.47;100.00;61586.06;6179666;23;20091;-78
2022/04/11 10:34:51;;;;;;;3.75;2.47;;;;;;;-144.47;100.00;61586.06;6179362;23;20013;-80
2022/04/11 10:37:18;;;;;;;6.00;2.60;;;;;;;-144.47;100.00;61586.06;6179495;23;20020;-79
2022/04/11 10:39:45;;;;;;;7.63;2.70;;;;;;;-144.47;100.00;61586.06;6179172;23;20418;-82
2022/04/11 10:42:16;;;;;;;2.20;2.10;;;;;;;-144.47;100.00;61586.06;6179045;23;20041;-83
2022/04/11 10:44:45;;;;;;;2.90;2.40;;;;;;;-144.47;100.00;61586.06;6180086;23;20017;-78
2022/04/11 10:47:14;;;;;;;3.92;2.30;;;;;;;-144.47;100.00;61586.06;6178597;23;20062;-79
2022/04/11 10:49:48;;;;;;;5.13;2.60;;;;;;;-144.47;100.00;61586.06;6178391;23;20032;-78
2022/04/11 10:52:27;;;;;;;4.70;2.97;;;;;;;-144.47;100.00;61586.06;6177522;23;20005;-76
2022/04/11 10:55:06;;;;;;;4.10;2.20;;;;;;;-144.47;100.00;61586.06;6178932;23;20088;-76
2022/04/11 10:57:37;;;;;;;3.30;2.50;;;;;;;-144.47;100.00;61586.06;6179723;23;20437;-76
2022/04/11 11:00:11;;;;;;;3.53;2.60;;;;;;;-144.47;100.00;61586.06;6179922;23;20013;-76
2022/04/11 11:02:51;;;;;;;2.97;2.40;;;;;;;-144.47;100.00;61586.06;6180302;23;20021;-76
2022/04/11 11:05:38;;;;;;;4.03;2.58;;;;;;;-144.47;100.00;61586.06;6180826;23;20060;-75
2022/04/11 11:08:09;;;;;;;3.83;2.30;;;;;;;-144.47;100.00;61586.06;6180379;23;20397;-78
2022/04/11 11:10:46;;;;;;;4.53;2.58;;;;;;;-144.47;100.00;61586.06;6181967;23;20013;-78
2022/04/11 11:13:30;;;;;;;2.78;2.53;;;;;;;-144.47;100.00;61586.06;6181866;23;20091;-78